createdAt,value
2022-08-11T00:00:00.000Z,16.50
2022-08-11T00:02:34.054Z,16.50
2022-08-11T00:05:09.544Z,16.60
2022-08-11T00:07:45.458Z,16.60
2022-08-11T00:10:18.735Z,16.50
2022-08-11T00:12:54.435Z,16.60
2022-08-11T00:15:24.203Z,16.60
2022-08-11T00:17:59.025Z,16.60
2022-08-11T00:20:33.145Z,16.70
2022-08-11T00:23:07.726Z,16.70
2022-08-11T00:25:43.454Z,16.90
2022-08-11T00:28:32.384Z,17.00
2022-08-11T00:31:04.429Z,16.90
2022-08-11T00:33:41.221Z,16.90
2022-08-11T00:36:20.958Z,17.10
2022-08-11T00:38:55.074Z,17.10
2022-08-11T00:41:36.320Z,17.00
2022-08-11T00:44:34.244Z,17.00
2022-08-11T00:47:17.168Z,16.90
2022-08-11T00:49:56.865Z,16.90
2022-08-11T00:52:38.407Z,16.80
2022-08-11T00:55:47.321Z,16.90
2022-08-11T00:59:34.664Z,16.80
2022-08-11T01:02:11.103Z,16.90
2022-08-11T01:05:17.655Z,16.90
2022-08-11T01:08:18.835Z,16.90
2022-08-11T01:11:00.604Z,16.70
2022-08-11T01:14:06.811Z,16.50
2022-08-11T01:17:25.215Z,16.40
2022-08-11T01:20:47.449Z,16.20
2022-08-11T01:23:37.894Z,16.00
2022-08-11T01:26:48.494Z,15.80
2022-08-11T01:29:52.985Z,15.70
2022-08-11T01:33:05.844Z,15.60
2022-08-11T01:36:17.654Z,15.60
2022-08-11T01:39:34.417Z,15.60
2022-08-11T01:42:50.863Z,15.60
2022-08-11T01:45:35.525Z,15.70
2022-08-11T01:48:10.144Z,15.70
2022-08-11T01:51:08.827Z,15.80
2022-08-11T01:53:56.103Z,15.80
2022-08-11T01:56:48.093Z,15.90
2022-08-11T01:59:22.777Z,15.80
2022-08-11T02:02:06.896Z,15.80
2022-08-11T02:04:42.422Z,15.70
2022-08-11T02:07:20.385Z,15.70
2022-08-11T02:10:35.164Z,15.60
2022-08-11T02:13:15.226Z,15.40
2022-08-11T02:15:48.944Z,15.40
2022-08-11T02:18:24.883Z,15.30
2022-08-11T02:21:14.784Z,15.20
2022-08-11T02:24:06.750Z,15.20
2022-08-11T02:26:43.373Z,15.10
2022-08-11T02:29:18.433Z,15.10
2022-08-11T02:32:29.577Z,15.00
2022-08-11T02:35:09.855Z,15.00
2022-08-11T02:37:55.092Z,14.90
2022-08-11T02:40:32.583Z,15.00
2022-08-11T02:43:12.464Z,14.90
2022-08-11T02:45:54.929Z,14.90
2022-08-11T02:49:06.934Z,14.80
2022-08-11T02:51:44.475Z,14.70
2022-08-11T02:54:18.983Z,14.60
2022-08-11T02:56:53.684Z,14.60
2022-08-11T02:59:49.913Z,14.70
2022-08-11T03:02:42.614Z,14.60
2022-08-11T03:05:32.521Z,14.60
2022-08-11T03:08:24.862Z,14.70
2022-08-11T03:11:20.668Z,14.60
2022-08-11T03:14:15.222Z,14.60
2022-08-11T03:16:53.302Z,14.50
2022-08-11T03:19:31.902Z,14.40
2022-08-11T03:22:11.197Z,14.40
2022-08-11T03:24:55.332Z,14.30
2022-08-11T03:27:37.152Z,14.40
2022-08-11T03:30:13.030Z,14.40
2022-08-11T03:33:21.203Z,14.40
2022-08-11T03:36:06.082Z,14.50
2022-08-11T03:38:50.396Z,14.40
2022-08-11T03:42:02.751Z,14.40
2022-08-11T03:45:01.374Z,14.40
2022-08-11T03:47:41.101Z,14.30
2022-08-11T03:50:33.782Z,14.20
2022-08-11T03:53:16.544Z,14.10
2022-08-11T03:56:15.162Z,14.10
2022-08-11T03:59:26.181Z,14.00
2022-08-11T04:02:25.993Z,14.00
2022-08-11T04:05:39.112Z,14.20
2022-08-11T04:08:44.222Z,14.30
2022-08-11T04:11:54.266Z,14.30
2022-08-11T04:15:07.803Z,14.40
2022-08-11T04:18:01.623Z,14.30
2022-08-11T04:20:53.144Z,14.30
2022-08-11T04:24:12.926Z,14.30
2022-08-11T04:27:14.706Z,14.40
2022-08-11T04:30:05.388Z,14.30
2022-08-11T04:33:11.774Z,14.30
2022-08-11T04:35:55.943Z,14.30
2022-08-11T04:38:50.513Z,14.20
2022-08-11T04:42:12.978Z,14.20
2022-08-11T04:45:18.524Z,14.20
2022-08-11T04:48:20.312Z,14.20
2022-08-11T04:51:20.273Z,14.20
2022-08-11T04:54:34.953Z,14.30
2022-08-11T04:57:35.573Z,14.30
2022-08-11T05:00:25.633Z,14.50
2022-08-11T05:03:36.565Z,14.80
2022-08-11T05:06:44.534Z,14.90
2022-08-11T05:09:32.652Z,15.00
2022-08-11T05:12:27.157Z,15.00
2022-08-11T05:15:15.004Z,15.00
2022-08-11T05:18:03.666Z,15.10
2022-08-11T05:21:05.900Z,15.20
2022-08-11T05:23:58.100Z,15.30
2022-08-11T05:26:54.025Z,15.40
2022-08-11T05:30:00.051Z,15.40
2022-08-11T05:32:51.032Z,15.60
2022-08-11T05:36:02.247Z,15.80
2022-08-11T05:38:42.643Z,15.80
2022-08-11T05:41:31.519Z,15.90
2022-08-11T05:44:22.106Z,16.10
2022-08-11T05:47:09.284Z,16.20
2022-08-11T05:49:57.881Z,16.30
2022-08-11T05:52:46.899Z,16.50
2022-08-11T05:55:35.316Z,16.60
2022-08-11T05:58:06.473Z,16.60
2022-08-11T06:00:44.102Z,16.70
2022-08-11T06:03:13.762Z,16.80
2022-08-11T06:05:44.405Z,17.00
2022-08-11T06:08:15.022Z,17.10
2022-08-11T06:10:46.623Z,17.10
2022-08-11T06:13:18.205Z,17.20
2022-08-11T06:15:48.848Z,17.30
2022-08-11T06:18:18.448Z,17.40
2022-08-11T06:20:52.376Z,17.50
2022-08-11T06:23:24.034Z,17.60
2022-08-11T06:25:56.257Z,17.70
2022-08-11T06:28:32.823Z,17.80
2022-08-11T06:31:03.933Z,17.80
2022-08-11T06:33:36.386Z,17.90
2022-08-11T06:36:10.129Z,18.00
2022-08-11T06:38:58.254Z,18.20
2022-08-11T06:41:35.572Z,18.20
2022-08-11T06:44:15.083Z,18.30
2022-08-11T06:46:44.792Z,18.40
2022-08-11T06:49:29.103Z,18.50
2022-08-11T06:52:01.804Z,18.60
2022-08-11T06:54:36.473Z,18.70
2022-08-11T06:57:29.888Z,18.90
2022-08-11T07:00:18.123Z,19.00
2022-08-11T07:02:53.438Z,19.10
2022-08-11T07:05:25.990Z,19.20
2022-08-11T07:08:37.274Z,19.30
2022-08-11T07:11:46.105Z,19.40
2022-08-11T07:14:38.793Z,19.50
2022-08-11T07:17:10.242Z,19.70
2022-08-11T07:19:57.336Z,19.80
2022-08-11T07:22:44.163Z,19.90
2022-08-11T07:25:34.157Z,20.00
2022-08-11T07:28:21.775Z,20.20
2022-08-11T07:30:58.684Z,20.30
2022-08-11T07:34:07.859Z,20.40
2022-08-11T07:36:29.077Z,20.60
2022-08-11T07:38:58.887Z,20.70
2022-08-11T07:41:31.285Z,20.70
2022-08-11T07:44:09.323Z,20.80
2022-08-11T07:47:00.767Z,21.00
2022-08-11T07:49:50.409Z,21.10
2022-08-11T07:52:33.843Z,21.30
2022-08-11T07:55:06.469Z,21.50
2022-08-11T07:58:16.164Z,21.60
2022-08-11T08:01:10.524Z,21.90
2022-08-11T08:04:04.658Z,22.20
2022-08-11T08:06:52.859Z,22.50
2022-08-11T08:09:41.474Z,22.70
2022-08-11T08:12:28.604Z,23.00
2022-08-11T08:15:16.243Z,23.70
2022-08-11T08:18:20.753Z,24.70
2022-08-11T08:20:50.162Z,25.80
2022-08-11T08:23:33.940Z,27.30
2022-08-11T08:26:05.902Z,28.60
2022-08-11T08:28:46.735Z,30.00
2022-08-11T08:31:15.548Z,31.20
2022-08-11T08:33:45.406Z,31.90
2022-08-11T08:36:17.126Z,32.70
2022-08-11T08:38:50.793Z,33.80
2022-08-11T08:41:30.013Z,34.30
2022-08-11T08:44:34.792Z,35.00
2022-08-11T08:46:56.273Z,35.70
2022-08-11T08:49:30.284Z,36.20
2022-08-11T08:52:24.215Z,36.40
2022-08-11T08:54:58.047Z,36.70
2022-08-11T08:57:30.293Z,37.10
2022-08-11T09:00:00.983Z,37.70
2022-08-11T09:02:33.953Z,37.90
2022-08-11T09:05:05.126Z,38.10
2022-08-11T09:07:39.161Z,38.50
2022-08-11T09:10:12.134Z,39.10
2022-08-11T09:12:43.072Z,39.50
2022-08-11T09:15:15.118Z,39.80
2022-08-11T09:17:49.921Z,39.90
2022-08-11T09:20:21.254Z,39.80
2022-08-11T09:26:18.546Z,40.10
2022-08-11T09:28:49.814Z,40.20
2022-08-11T09:31:21.576Z,40.80
2022-08-11T09:33:55.336Z,41.00
2022-08-11T09:36:41.876Z,41.40
2022-08-11T09:39:31.565Z,41.50
2022-08-11T09:42:03.313Z,42.30
2022-08-11T09:44:53.870Z,41.90
2022-08-11T09:47:25.007Z,41.50
2022-08-11T09:50:00.655Z,41.40
2022-08-11T09:52:32.183Z,41.60
2022-08-11T09:55:11.191Z,41.60
2022-08-11T09:57:58.883Z,41.50
2022-08-11T10:00:31.734Z,41.60
2022-08-11T10:03:02.793Z,41.80
2022-08-11T10:05:50.148Z,41.90
2022-08-11T10:08:20.692Z,42.30
2022-08-11T10:10:51.516Z,42.40
2022-08-11T10:14:30.552Z,42.20
2022-08-11T10:16:16.671Z,42.30
2022-08-11T10:18:53.217Z,42.20
2022-08-11T10:21:29.402Z,42.50
2022-08-11T10:24:18.133Z,42.90
2022-08-11T10:26:55.653Z,43.30
2022-08-11T10:29:45.303Z,43.80
2022-08-11T10:32:57.669Z,44.20
2022-08-11T10:35:29.103Z,43.70
2022-08-11T10:38:06.615Z,43.00
2022-08-11T10:40:40.211Z,42.50
2022-08-11T10:43:14.366Z,42.70
2022-08-11T10:46:04.654Z,43.60
2022-08-11T10:48:38.275Z,43.50
2022-08-11T10:51:14.521Z,43.40
2022-08-11T10:54:03.742Z,43.40
2022-08-11T10:56:53.744Z,43.40
2022-08-11T10:59:25.303Z,43.00
2022-08-11T11:01:54.162Z,43.30
2022-08-11T11:04:29.094Z,44.00
2022-08-11T11:07:07.223Z,44.50
2022-08-11T11:09:42.232Z,44.60
2022-08-11T11:12:32.777Z,44.60
2022-08-11T11:15:22.502Z,44.70
2022-08-11T11:18:04.851Z,45.50
2022-08-11T11:20:40.768Z,45.30
2022-08-11T11:23:18.793Z,45.10
2022-08-11T11:26:11.896Z,44.80
2022-08-11T11:29:00.443Z,44.40
2022-08-11T11:31:47.454Z,44.10
2022-08-11T11:34:24.872Z,44.10
2022-08-11T11:36:56.933Z,44.30
2022-08-11T11:39:28.279Z,43.80
2022-08-11T11:42:00.782Z,43.80
2022-08-11T11:44:31.115Z,44.00
2022-08-11T11:47:02.883Z,43.90
2022-08-11T11:49:32.902Z,43.70
2022-08-11T11:52:02.484Z,43.20
2022-08-11T11:54:33.980Z,43.50
2022-08-11T11:57:23.853Z,43.80
2022-08-11T12:00:11.243Z,44.40
2022-08-11T12:02:43.653Z,44.90
2022-08-11T12:05:13.124Z,45.00
2022-08-11T12:08:10.601Z,44.60
2022-08-11T12:10:44.565Z,44.20
2022-08-11T12:13:31.433Z,44.10
2022-08-11T12:16:35.014Z,43.40
2022-08-11T12:18:56.662Z,43.30
2022-08-11T12:21:26.454Z,43.60
2022-08-11T12:24:15.096Z,43.70
2022-08-11T12:27:16.466Z,43.10
2022-08-11T12:29:54.411Z,43.00
2022-08-11T12:32:27.551Z,43.20
2022-08-11T12:34:58.254Z,43.80
2022-08-11T12:37:32.700Z,44.20
2022-08-11T12:40:43.007Z,44.40
2022-08-11T12:43:38.615Z,44.70
2022-08-11T12:46:11.356Z,44.60
2022-08-11T12:49:05.771Z,44.10
2022-08-11T12:52:13.143Z,43.60
2022-08-11T12:54:57.871Z,43.40
2022-08-11T12:57:48.907Z,43.40
2022-08-11T13:00:36.742Z,43.80
2022-08-11T13:03:24.985Z,44.20
2022-08-11T13:05:56.895Z,44.40
2022-08-11T13:08:29.737Z,44.70
2022-08-11T13:11:19.674Z,44.60
2022-08-11T13:13:55.270Z,44.30
2022-08-11T13:16:28.155Z,44.30
2022-08-11T13:18:58.924Z,43.90
2022-08-11T13:21:29.459Z,43.40
2022-08-11T13:24:03.021Z,43.10
2022-08-11T13:26:46.613Z,43.60
2022-08-11T13:29:25.764Z,43.60
2022-08-11T13:31:56.225Z,44.10
2022-08-11T13:34:27.587Z,44.40
2022-08-11T13:36:57.233Z,44.50
2022-08-11T13:39:29.730Z,44.40
2022-08-11T13:42:00.689Z,44.60
2022-08-11T13:44:31.670Z,44.70
2022-08-11T13:47:04.427Z,44.80
2022-08-11T13:49:40.491Z,44.80
2022-08-11T13:52:14.196Z,44.80
2022-08-11T13:54:48.202Z,44.40
2022-08-11T13:58:06.262Z,43.80
2022-08-11T14:00:23.422Z,43.90
2022-08-11T14:02:57.449Z,43.60
2022-08-11T14:05:29.485Z,43.30
2022-08-11T14:08:02.745Z,43.20
2022-08-11T14:10:35.271Z,43.10
2022-08-11T14:13:25.713Z,43.50
2022-08-11T14:15:55.094Z,42.70
2022-08-11T14:18:26.754Z,42.50
2022-08-11T14:21:15.231Z,42.70
2022-08-11T14:23:46.223Z,42.90
2022-08-11T14:26:27.088Z,43.10
2022-08-11T14:28:59.304Z,42.90
2022-08-11T14:31:30.015Z,42.60
2022-08-11T14:34:02.515Z,42.30
2022-08-11T14:36:34.133Z,42.40
2022-08-11T14:39:07.235Z,42.40
2022-08-11T14:42:10.115Z,42.40
2022-08-11T14:45:17.075Z,42.20
2022-08-11T14:47:48.884Z,42.10
2022-08-11T14:50:23.307Z,41.60
2022-08-11T14:52:55.285Z,41.30
2022-08-11T14:55:44.422Z,41.20
2022-08-11T14:58:18.318Z,40.80
2022-08-11T15:00:48.139Z,40.10
2022-08-11T15:03:16.518Z,39.50
2022-08-11T15:05:57.157Z,39.20
2022-08-11T15:08:42.854Z,38.90
2022-08-11T15:11:27.164Z,38.80
2022-08-11T15:13:58.394Z,38.80
2022-08-11T15:16:45.424Z,38.90
2022-08-11T15:19:15.983Z,38.60
2022-08-11T15:22:02.516Z,38.30
2022-08-11T15:24:31.330Z,38.20
2022-08-11T15:27:19.649Z,38.10
2022-08-11T15:30:09.669Z,37.90
2022-08-11T15:33:06.097Z,37.60
2022-08-11T15:35:56.538Z,37.30
2022-08-11T15:38:26.788Z,37.10
2022-08-11T15:41:15.434Z,37.20
2022-08-11T15:44:04.435Z,37.10
2022-08-11T15:46:42.305Z,36.70
2022-08-11T15:49:13.867Z,36.50
2022-08-11T15:52:01.794Z,36.30
2022-08-11T15:54:33.952Z,35.90
2022-08-11T15:57:05.839Z,35.80
2022-08-11T15:59:56.217Z,35.70
2022-08-11T16:02:42.018Z,35.70
2022-08-11T16:05:45.370Z,35.50
2022-08-11T16:08:05.787Z,35.30
2022-08-11T16:10:37.136Z,35.00
2022-08-11T16:13:29.300Z,34.90
2022-08-11T16:16:18.847Z,34.80
2022-08-11T16:18:56.267Z,34.70
2022-08-11T16:21:35.228Z,34.50
2022-08-11T16:24:08.426Z,34.40
2022-08-11T16:27:11.282Z,34.00
2022-08-11T16:29:32.025Z,33.70
2022-08-11T16:32:18.902Z,33.20
2022-08-11T16:35:11.912Z,32.80
2022-08-11T16:37:59.381Z,32.40
2022-08-11T16:40:29.781Z,32.00
2022-08-11T16:43:17.873Z,31.70
2022-08-11T16:46:04.981Z,31.50
2022-08-11T16:48:38.601Z,31.30
2022-08-11T16:51:11.891Z,31.00
2022-08-11T16:53:50.143Z,30.80
2022-08-11T16:56:38.342Z,30.50
2022-08-11T16:59:16.965Z,30.40
2022-08-11T17:01:53.516Z,30.20
2022-08-11T17:04:47.831Z,30.10
2022-08-11T17:07:41.528Z,30.00
2022-08-11T17:10:52.014Z,29.80
2022-08-11T17:13:29.179Z,29.70
2022-08-11T17:16:08.664Z,29.40
2022-08-11T17:18:51.762Z,29.40
2022-08-11T17:21:24.559Z,29.30
2022-08-11T17:23:59.408Z,29.30
2022-08-11T17:26:53.184Z,29.10
2022-08-11T17:29:26.260Z,29.00
2022-08-11T17:32:14.219Z,28.90
2022-08-11T17:35:03.573Z,28.80
2022-08-11T17:37:35.082Z,28.70
2022-08-11T17:40:08.750Z,28.70
2022-08-11T17:42:56.889Z,28.50
2022-08-11T17:45:43.871Z,28.50
2022-08-11T17:48:29.042Z,28.30
2022-08-11T17:51:00.584Z,28.20
2022-08-11T17:54:15.232Z,28.00
2022-08-11T17:56:58.236Z,27.90
2022-08-11T17:59:49.311Z,27.80
2022-08-11T18:02:38.234Z,27.70
2022-08-11T18:05:12.742Z,27.60
2022-08-11T18:08:01.976Z,27.50
2022-08-11T18:10:50.265Z,27.40
2022-08-11T18:13:40.343Z,27.20
2022-08-11T18:16:27.295Z,27.10
2022-08-11T18:19:14.193Z,27.00
2022-08-11T18:22:14.833Z,27.00
2022-08-11T18:25:07.897Z,26.90
2022-08-11T18:27:57.484Z,26.80
2022-08-11T18:30:47.827Z,26.60
2022-08-11T18:36:46.511Z,26.30
2022-08-11T18:39:35.202Z,26.10
2022-08-11T18:42:29.394Z,25.90
2022-08-11T18:45:20.081Z,25.70
2022-08-11T18:48:11.410Z,25.50
2022-08-11T18:51:36.121Z,25.30
2022-08-11T18:54:15.499Z,25.10
2022-08-11T18:57:05.353Z,24.90
2022-08-11T18:59:55.199Z,24.70
2022-08-11T19:02:48.633Z,24.50
2022-08-11T19:06:32.302Z,24.30
2022-08-11T19:08:49.047Z,24.10
2022-08-11T19:11:38.196Z,23.90
2022-08-11T19:14:30.667Z,23.70
2022-08-11T19:17:43.912Z,23.60
2022-08-11T19:20:27.584Z,23.50
2022-08-11T19:23:16.849Z,23.30
2022-08-11T19:26:03.895Z,23.20
2022-08-11T19:28:52.524Z,23.10
2022-08-11T19:31:44.428Z,23.00
2022-08-11T19:34:33.110Z,23.00
2022-08-11T19:37:24.003Z,23.00
2022-08-11T19:40:13.637Z,22.90
2022-08-11T19:43:01.654Z,22.80
2022-08-11T19:45:52.161Z,22.70
2022-08-11T19:48:41.077Z,22.60
2022-08-11T19:51:28.383Z,22.50
2022-08-11T19:54:15.008Z,22.50
2022-08-11T19:57:04.370Z,22.50
2022-08-11T19:59:52.024Z,22.30
2022-08-11T20:02:38.474Z,22.20
2022-08-11T20:05:26.234Z,22.10
2022-08-11T20:08:15.174Z,22.00
2022-08-11T20:11:03.884Z,22.10
2022-08-11T20:13:51.788Z,22.10
2022-08-11T20:16:39.254Z,22.00
2022-08-11T20:19:55.574Z,22.00
2022-08-11T20:22:34.358Z,21.90
2022-08-11T20:25:22.329Z,21.80
2022-08-11T20:28:10.504Z,21.70
2022-08-11T20:30:59.138Z,21.60
2022-08-11T20:33:45.298Z,21.50
2022-08-11T20:36:34.937Z,21.40
2022-08-11T20:39:22.034Z,21.30
2022-08-11T20:42:10.415Z,21.20
2022-08-11T20:44:57.955Z,21.30
2022-08-11T20:47:59.781Z,21.20
2022-08-11T20:50:47.955Z,21.30
2022-08-11T20:53:40.521Z,21.20
2022-08-11T20:56:29.111Z,21.10
2022-08-11T20:59:18.944Z,21.00
2022-08-11T21:02:09.957Z,21.00
2022-08-11T21:05:00.308Z,20.90
2022-08-11T21:07:56.778Z,20.70
2022-08-11T21:10:50.609Z,20.60
2022-08-11T21:13:41.495Z,20.40
2022-08-11T21:16:30.685Z,20.30
2022-08-11T21:19:59.893Z,20.30
2022-08-11T21:22:35.716Z,20.20
2022-08-11T21:25:25.994Z,20.10
2022-08-11T21:28:15.061Z,20.10
2022-08-11T21:31:01.954Z,20.00
2022-08-11T21:33:50.413Z,19.80
2022-08-11T21:36:38.407Z,19.70
2022-08-11T21:39:28.848Z,19.70
2022-08-11T21:42:16.694Z,19.50
2022-08-11T21:45:04.645Z,19.40
2022-08-11T21:48:00.834Z,19.30
2022-08-11T21:50:47.383Z,19.20
2022-08-11T21:53:34.461Z,19.20
2022-08-11T21:56:26.214Z,19.20
2022-08-11T21:59:14.926Z,19.40
2022-08-11T22:02:01.960Z,19.40
2022-08-11T22:04:50.504Z,19.30
2022-08-11T22:07:39.413Z,19.20
2022-08-11T22:10:41.375Z,19.10
2022-08-11T22:13:31.834Z,19.00
2022-08-11T22:16:18.078Z,18.90
2022-08-11T22:19:05.577Z,18.70
2022-08-11T22:22:03.025Z,18.70
2022-08-11T22:24:52.739Z,18.70
2022-08-11T22:27:39.466Z,18.70
2022-08-11T22:30:29.234Z,18.70
2022-08-11T22:33:18.673Z,18.70
2022-08-11T22:36:13.138Z,18.80
2022-08-11T22:39:04.036Z,18.90
2022-08-11T22:41:50.594Z,18.90
2022-08-11T22:44:36.334Z,19.00
2022-08-11T22:47:27.350Z,19.10
2022-08-11T22:50:17.065Z,19.10
2022-08-11T22:53:05.357Z,19.00
2022-08-11T22:55:52.369Z,18.90
2022-08-11T22:58:39.975Z,18.90
2022-08-11T23:01:26.440Z,18.90
2022-08-11T23:04:15.249Z,19.00
2022-08-11T23:07:51.303Z,19.00
2022-08-11T23:10:38.835Z,19.00
2022-08-11T23:13:25.885Z,18.90
2022-08-11T23:16:13.485Z,18.80
2022-08-11T23:19:00.030Z,18.50
2022-08-11T23:21:50.099Z,18.30
2022-08-11T23:24:37.085Z,18.00
2022-08-11T23:27:25.035Z,17.70
2022-08-11T23:30:13.786Z,17.60
2022-08-11T23:33:06.724Z,17.40
2022-08-11T23:35:53.963Z,17.40
2022-08-11T23:38:46.076Z,17.40
2022-08-11T23:41:34.054Z,17.30
2022-08-11T23:44:21.676Z,17.40
2022-08-11T23:47:08.563Z,17.50
2022-08-11T23:49:55.875Z,17.50
2022-08-11T23:52:45.779Z,17.60
2022-08-11T23:55:34.374Z,17.70
2022-08-11T23:58:20.562Z,17.70
